sensor_id;sensor_type;location;lat;lon;timestamp;pressure;altitude;pressure_sealevel;temperature;humidity
47913;BME280;33676;51.006;17.180;2024-01-11T00:01:15;101600.42;;;-9.59;79.36
47913;BME280;33676;51.006;17.180;2024-01-11T00:03:44;101601.96;;;-9.58;79.27
47913;BME280;33676;51.006;17.180;2024-01-11T00:06:13;101596.22;;;-9.58;79.47
47913;BME280;33676;51.006;17.180;2024-01-11T00:08:41;101590.33;;;-9.57;79.34
47913;BME280;33676;51.006;17.180;2024-01-11T00:11:10;101588.67;;;-9.56;79.72
47913;BME280;33676;51.006;17.180;2024-01-11T00:13:39;101589.75;;;-9.53;79.99
47913;BME280;33676;51.006;17.180;2024-01-11T00:16:07;101591.77;;;-9.53;80.00
47913;BME280;33676;51.006;17.180;2024-01-11T00:18:36;101593.52;;;-9.51;79.99
47913;BME280;33676;51.006;17.180;2024-01-11T00:21:05;101581.56;;;-9.49;79.66
47913;BME280;33676;51.006;17.180;2024-01-11T00:23:33;101574.80;;;-9.49;79.97
47913;BME280;33676;51.006;17.180;2024-01-11T00:26:02;101576.14;;;-9.49;79.78
47913;BME280;33676;51.006;17.180;2024-01-11T00:28:30;101575.38;;;-9.52;79.62
47913;BME280;33676;51.006;17.180;2024-01-11T00:30:59;101574.00;;;-9.54;80.00
47913;BME280;33676;51.006;17.180;2024-01-11T00:33:27;101566.91;;;-9.66;79.99
47913;BME280;33676;51.006;17.180;2024-01-11T00:35:56;101571.15;;;-9.99;79.64
47913;BME280;33676;51.006;17.180;2024-01-11T00:38:24;101574.45;;;-10.35;79.17
47913;BME280;33676;51.006;17.180;2024-01-11T00:40:53;101574.98;;;-10.58;80.55
47913;BME280;33676;51.006;17.180;2024-01-11T00:43:21;101564.61;;;-10.67;81.51
47913;BME280;33676;51.006;17.180;2024-01-11T00:45:50;101556.98;;;-10.74;82.27
47913;BME280;33676;51.006;17.180;2024-01-11T00:48:18;101552.48;;;-10.72;83.19
47913;BME280;33676;51.006;17.180;2024-01-11T00:50:47;101544.88;;;-10.66;82.59
47913;BME280;33676;51.006;17.180;2024-01-11T00:53:15;101539.87;;;-10.58;82.71
47913;BME280;33676;51.006;17.180;2024-01-11T00:55:45;101531.79;;;-10.51;82.53
47913;BME280;33676;51.006;17.180;2024-01-11T00:58:13;101529.34;;;-10.42;82.33
47913;BME280;33676;51.006;17.180;2024-01-11T01:00:42;101532.69;;;-10.36;82.49
47913;BME280;33676;51.006;17.180;2024-01-11T01:03:11;101530.84;;;-10.29;82.34
47913;BME280;33676;51.006;17.180;2024-01-11T01:05:39;101523.77;;;-10.22;82.54
47913;BME280;33676;51.006;17.180;2024-01-11T01:08:08;101523.06;;;-10.15;82.81
47913;BME280;33676;51.006;17.180;2024-01-11T01:10:36;101529.45;;;-10.10;82.58
47913;BME280;33676;51.006;17.180;2024-01-11T01:13:05;101528.09;;;-10.04;82.82
47913;BME280;33676;51.006;17.180;2024-01-11T01:15:34;101524.05;;;-9.97;82.51
47913;BME280;33676;51.006;17.180;2024-01-11T01:18:03;101523.38;;;-9.90;83.05
47913;BME280;33676;51.006;17.180;2024-01-11T01:20:32;101521.29;;;-9.84;83.07
47913;BME280;33676;51.006;17.180;2024-01-11T01:23:01;101512.63;;;-9.79;82.90
47913;BME280;33676;51.006;17.180;2024-01-11T01:25:31;101523.73;;;-9.75;83.00
47913;BME280;33676;51.006;17.180;2024-01-11T01:28:01;101525.31;;;-9.73;82.73
47913;BME280;33676;51.006;17.180;2024-01-11T01:30:29;101524.71;;;-9.70;82.69
47913;BME280;33676;51.006;17.180;2024-01-11T01:32:58;101519.71;;;-9.66;82.70
47913;BME280;33676;51.006;17.180;2024-01-11T01:35:27;101501.53;;;-9.62;82.85
47913;BME280;33676;51.006;17.180;2024-01-11T01:37:55;101497.56;;;-9.59;82.63
47913;BME280;33676;51.006;17.180;2024-01-11T01:40:24;101503.59;;;-9.54;82.73
47913;BME280;33676;51.006;17.180;2024-01-11T01:42:58;101505.89;;;-9.50;82.58
47913;BME280;33676;51.006;17.180;2024-01-11T01:45:28;101512.38;;;-9.48;82.63
47913;BME280;33676;51.006;17.180;2024-01-11T01:47:56;101515.41;;;-9.48;82.18
47913;BME280;33676;51.006;17.180;2024-01-11T01:50:26;101512.70;;;-9.48;81.96
47913;BME280;33676;51.006;17.180;2024-01-11T01:52:55;101503.59;;;-9.47;81.94
47913;BME280;33676;51.006;17.180;2024-01-11T01:55:25;101498.58;;;-9.44;82.13
47913;BME280;33676;51.006;17.180;2024-01-11T01:57:54;101502.02;;;-9.42;82.11
47913;BME280;33676;51.006;17.180;2024-01-11T02:00:24;101508.17;;;-9.39;82.09
47913;BME280;33676;51.006;17.180;2024-01-11T02:02:55;101505.52;;;-9.37;82.11
47913;BME280;33676;51.006;17.180;2024-01-11T02:05:24;101514.11;;;-9.46;82.59
47913;BME280;33676;51.006;17.180;2024-01-11T02:07:53;101516.22;;;-9.71;81.50
47913;BME280;33676;51.006;17.180;2024-01-11T02:10:23;101526.34;;;-9.99;81.81
47913;BME280;33676;51.006;17.180;2024-01-11T02:12:52;101536.42;;;-10.15;82.60
47913;BME280;33676;51.006;17.180;2024-01-11T02:15:20;101540.63;;;-10.23;83.34
47913;BME280;33676;51.006;17.180;2024-01-11T02:17:49;101538.30;;;-10.28;84.19
47913;BME280;33676;51.006;17.180;2024-01-11T02:20:18;101529.95;;;-10.24;84.24
47913;BME280;33676;51.006;17.180;2024-01-11T02:22:51;101531.91;;;-10.20;83.90
47913;BME280;33676;51.006;17.180;2024-01-11T02:25:21;101530.15;;;-10.16;83.79
47913;BME280;33676;51.006;17.180;2024-01-11T02:27:50;101525.68;;;-10.12;83.63
47913;BME280;33676;51.006;17.180;2024-01-11T02:30:19;101528.16;;;-10.08;83.55
47913;BME280;33676;51.006;17.180;2024-01-11T02:32:49;101526.92;;;-10.04;83.52
47913;BME280;33676;51.006;17.180;2024-01-11T02:35:19;101522.54;;;-9.96;83.31
47913;BME280;33676;51.006;17.180;2024-01-11T02:37:48;101522.02;;;-9.90;83.62
47913;BME280;33676;51.006;17.180;2024-01-11T02:40:18;101514.34;;;-9.85;83.62
47913;BME280;33676;51.006;17.180;2024-01-11T02:42:47;101499.56;;;-9.81;83.63
47913;BME280;33676;51.006;17.180;2024-01-11T02:45:16;101508.06;;;-9.79;83.18
47913;BME280;33676;51.006;17.180;2024-01-11T02:47:44;101494.56;;;-9.78;83.10
47913;BME280;33676;51.006;17.180;2024-01-11T02:50:13;101476.02;;;-9.75;82.94
47913;BME280;33676;51.006;17.180;2024-01-11T02:52:41;101469.11;;;-9.75;82.99
47913;BME280;33676;51.006;17.180;2024-01-11T02:55:10;101469.61;;;-9.74;83.07
47913;BME280;33676;51.006;17.180;2024-01-11T02:57:38;101470.80;;;-9.74;82.69
47913;BME280;33676;51.006;17.180;2024-01-11T03:00:07;101456.75;;;-9.74;82.39
47913;BME280;33676;51.006;17.180;2024-01-11T03:02:37;101450.65;;;-9.75;82.20
47913;BME280;33676;51.006;17.180;2024-01-11T03:05:07;101453.51;;;-9.76;82.05
47913;BME280;33676;51.006;17.180;2024-01-11T03:07:36;101458.27;;;-9.74;82.05
47913;BME280;33676;51.006;17.180;2024-01-11T03:10:05;101452.96;;;-9.70;82.49
47913;BME280;33676;51.006;17.180;2024-01-11T03:12:33;101448.49;;;-9.65;82.93
47913;BME280;33676;51.006;17.180;2024-01-11T03:15:03;101447.89;;;-9.63;82.80
47913;BME280;33676;51.006;17.180;2024-01-11T03:20:49;101435.84;;;-9.57;82.83
47913;BME280;33676;51.006;17.180;2024-01-11T03:23:18;101436.61;;;-9.53;83.04
47913;BME280;33676;51.006;17.180;2024-01-11T03:25:46;101434.79;;;-9.51;83.33
47913;BME280;33676;51.006;17.180;2024-01-11T03:28:15;101435.64;;;-9.65;83.29
47913;BME280;33676;51.006;17.180;2024-01-11T03:30:43;101440.86;;;-9.88;82.72
47913;BME280;33676;51.006;17.180;2024-01-11T03:33:12;101443.60;;;-10.09;83.42
47913;BME280;33676;51.006;17.180;2024-01-11T03:35:41;101444.13;;;-10.15;84.52
47913;BME280;33676;51.006;17.180;2024-01-11T03:38:12;101453.56;;;-10.16;85.53
47913;BME280;33676;51.006;17.180;2024-01-11T03:40:40;101459.16;;;-10.15;86.14
47913;BME280;33676;51.006;17.180;2024-01-11T03:43:34;101455.44;;;-10.09;85.51
47913;BME280;33676;51.006;17.180;2024-01-11T03:49:20;101451.27;;;-9.92;85.17
47913;BME280;33676;51.006;17.180;2024-01-11T03:51:48;101446.66;;;-9.86;84.85
47913;BME280;33676;51.006;17.180;2024-01-11T03:54:17;101443.09;;;-9.79;85.12
47913;BME280;33676;51.006;17.180;2024-01-11T03:56:45;101446.66;;;-9.72;84.72
47913;BME280;33676;51.006;17.180;2024-01-11T03:59:14;101455.42;;;-9.65;84.82
47913;BME280;33676;51.006;17.180;2024-01-11T04:01:42;101455.58;;;-9.59;84.69
47913;BME280;33676;51.006;17.180;2024-01-11T04:04:11;101458.91;;;-9.54;84.59
47913;BME280;33676;51.006;17.180;2024-01-11T04:06:40;101461.86;;;-9.51;84.57
47913;BME280;33676;51.006;17.180;2024-01-11T04:09:09;101465.66;;;-9.48;84.27
47913;BME280;33676;51.006;17.180;2024-01-11T04:11:37;101465.22;;;-9.45;84.29
47913;BME280;33676;51.006;17.180;2024-01-11T04:14:06;101460.91;;;-9.41;84.22
47913;BME280;33676;51.006;17.180;2024-01-11T04:16:40;101458.11;;;-9.37;84.31
47913;BME280;33676;51.006;17.180;2024-01-11T04:19:09;101451.83;;;-9.29;84.48
47913;BME280;33676;51.006;17.180;2024-01-11T04:21:38;101447.70;;;-9.24;84.66
47913;BME280;33676;51.006;17.180;2024-01-11T04:24:07;101448.83;;;-9.19;84.47
47913;BME280;33676;51.006;17.180;2024-01-11T04:26:36;101450.76;;;-9.16;84.37
47913;BME280;33676;51.006;17.180;2024-01-11T04:29:05;101440.32;;;-9.13;84.56
47913;BME280;33676;51.006;17.180;2024-01-11T04:31:33;101437.00;;;-9.10;84.36
47913;BME280;33676;51.006;17.180;2024-01-11T04:34:20;101433.17;;;-9.06;84.05
47913;BME280;33676;51.006;17.180;2024-01-11T04:37:06;101430.20;;;-9.03;84.63
47913;BME280;33676;51.006;17.180;2024-01-11T04:42:36;101424.16;;;-9.00;84.38
47913;BME280;33676;51.006;17.180;2024-01-11T04:45:05;101431.80;;;-9.24;83.62
47913;BME280;33676;51.006;17.180;2024-01-11T04:47:33;101434.15;;;-9.49;83.55
47913;BME280;33676;51.006;17.180;2024-01-11T04:50:03;101441.27;;;-9.63;84.32
47913;BME280;33676;51.006;17.180;2024-01-11T04:52:32;101430.30;;;-9.77;84.73
47913;BME280;33676;51.006;17.180;2024-01-11T04:55:01;101432.25;;;-9.88;85.30
47913;BME280;33676;51.006;17.180;2024-01-11T04:57:30;101430.21;;;-9.96;85.55
47913;BME280;33676;51.006;17.180;2024-01-11T04:59:59;101425.60;;;-9.98;86.39
47913;BME280;33676;51.006;17.180;2024-01-11T05:02:31;101423.08;;;-9.90;86.16
47913;BME280;33676;51.006;17.180;2024-01-11T05:04:59;101421.00;;;-9.84;85.97
47913;BME280;33676;51.006;17.180;2024-01-11T05:07:28;101420.00;;;-9.77;85.81
47913;BME280;33676;51.006;17.180;2024-01-11T05:12:54;101398.74;;;-9.59;85.80
47913;BME280;33676;51.006;17.180;2024-01-11T05:15:22;101390.80;;;-9.51;86.10
47913;BME280;33676;51.006;17.180;2024-01-11T05:17:51;101389.61;;;-9.43;86.23
47913;BME280;33676;51.006;17.180;2024-01-11T05:20:19;101380.16;;;-9.32;86.14
47913;BME280;33676;51.006;17.180;2024-01-11T05:22:48;101375.63;;;-9.22;86.16
47913;BME280;33676;51.006;17.180;2024-01-11T05:25:16;101370.58;;;-9.12;86.35
47913;BME280;33676;51.006;17.180;2024-01-11T05:27:45;101362.98;;;-9.02;85.99
47913;BME280;33676;51.006;17.180;2024-01-11T05:30:14;101353.54;;;-8.91;86.30
47913;BME280;33676;51.006;17.180;2024-01-11T05:32:43;101357.10;;;-8.80;86.45
47913;BME280;33676;51.006;17.180;2024-01-11T05:35:11;101368.36;;;-8.66;86.19
47913;BME280;33676;51.006;17.180;2024-01-11T05:37:40;101364.33;;;-8.55;86.50
47913;BME280;33676;51.006;17.180;2024-01-11T05:40:09;101358.27;;;-8.43;86.89
47913;BME280;33676;51.006;17.180;2024-01-11T05:42:38;101343.65;;;-8.33;86.69
47913;BME280;33676;51.006;17.180;2024-01-11T05:45:11;101335.79;;;-8.24;86.47
47913;BME280;33676;51.006;17.180;2024-01-11T05:47:45;101322.84;;;-8.17;86.32
47913;BME280;33676;51.006;17.180;2024-01-11T05:50:14;101316.98;;;-8.11;86.24
47913;BME280;33676;51.006;17.180;2024-01-11T05:52:43;101309.10;;;-8.05;86.39
47913;BME280;33676;51.006;17.180;2024-01-11T05:55:11;101309.52;;;-8.00;86.14
47913;BME280;33676;51.006;17.180;2024-01-11T05:57:40;101307.21;;;-7.95;86.11
47913;BME280;33676;51.006;17.180;2024-01-11T06:00:08;101311.17;;;-7.91;86.00
47913;BME280;33676;51.006;17.180;2024-01-11T06:02:37;101324.65;;;-7.86;85.75
47913;BME280;33676;51.006;17.180;2024-01-11T06:05:09;101334.69;;;-7.85;85.59
47913;BME280;33676;51.006;17.180;2024-01-11T06:07:38;101341.36;;;-7.79;85.96
47913;BME280;33676;51.006;17.180;2024-01-11T06:10:07;101344.36;;;-7.71;86.10
47913;BME280;33676;51.006;17.180;2024-01-11T06:12:38;101341.80;;;-7.59;86.16
47913;BME280;33676;51.006;17.180;2024-01-11T06:15:07;101331.92;;;-7.48;86.38
47913;BME280;33676;51.006;17.180;2024-01-11T06:17:36;101322.38;;;-7.37;86.40
47913;BME280;33676;51.006;17.180;2024-01-11T06:20:23;101314.52;;;-7.24;86.45
47913;BME280;33676;51.006;17.180;2024-01-11T06:22:52;101308.91;;;-7.10;86.51
47913;BME280;33676;51.006;17.180;2024-01-11T06:25:21;101299.36;;;-6.97;86.97
47913;BME280;33676;51.006;17.180;2024-01-11T06:28:13;101288.23;;;-6.87;86.85
47913;BME280;33676;51.006;17.180;2024-01-11T06:30:42;101272.34;;;-6.78;86.60
47913;BME280;33676;51.006;17.180;2024-01-11T06:33:12;101267.45;;;-6.70;86.75
47913;BME280;33676;51.006;17.180;2024-01-11T06:35:41;101273.80;;;-6.62;86.60
47913;BME280;33676;51.006;17.180;2024-01-11T06:38:09;101283.56;;;-6.54;86.58
47913;BME280;33676;51.006;17.180;2024-01-11T06:40:38;101291.96;;;-6.47;86.45
47913;BME280;33676;51.006;17.180;2024-01-11T06:43:06;101289.14;;;-6.38;86.53
47913;BME280;33676;51.006;17.180;2024-01-11T06:45:35;101297.72;;;-6.29;86.71
47913;BME280;33676;51.006;17.180;2024-01-11T06:48:06;101297.92;;;-6.21;86.50
47913;BME280;33676;51.006;17.180;2024-01-11T06:50:35;101303.75;;;-6.14;86.36
47913;BME280;33676;51.006;17.180;2024-01-11T06:53:03;101306.19;;;-6.06;86.24
47913;BME280;33676;51.006;17.180;2024-01-11T06:55:32;101313.72;;;-5.98;86.45
47913;BME280;33676;51.006;17.180;2024-01-11T06:58:01;101314.96;;;-5.92;86.18
47913;BME280;33676;51.006;17.180;2024-01-11T07:00:30;101315.48;;;-5.85;86.21
47913;BME280;33676;51.006;17.180;2024-01-11T07:02:59;101318.58;;;-5.79;86.27
47913;BME280;33676;51.006;17.180;2024-01-11T07:05:28;101302.27;;;-5.73;86.02
47913;BME280;33676;51.006;17.180;2024-01-11T07:07:57;101293.56;;;-5.76;85.42
47913;BME280;33676;51.006;17.180;2024-01-11T07:10:26;101294.02;;;-5.89;85.09
47913;BME280;33676;51.006;17.180;2024-01-11T07:12:54;101290.21;;;-6.02;85.11
47913;BME280;33676;51.006;17.180;2024-01-11T07:15:23;101283.70;;;-6.10;85.18
47913;BME280;33676;51.006;17.180;2024-01-11T07:18:10;101270.90;;;-6.16;85.20
47913;BME280;33676;51.006;17.180;2024-01-11T07:20:39;101261.52;;;-6.18;85.78
47913;BME280;33676;51.006;17.180;2024-01-11T07:23:08;101257.83;;;-6.09;86.59
47913;BME280;33676;51.006;17.180;2024-01-11T07:28:47;101252.51;;;-5.83;87.12
47913;BME280;33676;51.006;17.180;2024-01-11T07:31:16;101255.43;;;-5.72;87.15
47913;BME280;33676;51.006;17.180;2024-01-11T07:33:45;101253.08;;;-5.60;87.08
47913;BME280;33676;51.006;17.180;2024-01-11T07:36:14;101237.27;;;-5.50;87.33
47913;BME280;33676;51.006;17.180;2024-01-11T07:38:43;101228.27;;;-5.40;87.23
47913;BME280;33676;51.006;17.180;2024-01-11T07:41:12;101219.27;;;-5.30;87.14
47913;BME280;33676;51.006;17.180;2024-01-11T07:46:44;101203.60;;;-5.07;87.13
47913;BME280;33676;51.006;17.180;2024-01-11T07:49:42;101196.63;;;-4.95;87.40
47913;BME280;33676;51.006;17.180;2024-01-11T07:52:11;101207.89;;;-4.87;87.33
47913;BME280;33676;51.006;17.180;2024-01-11T07:54:42;101220.50;;;-4.78;87.37
47913;BME280;33676;51.006;17.180;2024-01-11T07:57:43;101219.11;;;-4.67;87.24
47913;BME280;33676;51.006;17.180;2024-01-11T08:00:12;101221.65;;;-4.59;87.21
47913;BME280;33676;51.006;17.180;2024-01-11T08:03:12;101219.43;;;-4.50;87.22
47913;BME280;33676;51.006;17.180;2024-01-11T08:05:42;101213.63;;;-4.39;87.18
47913;BME280;33676;51.006;17.180;2024-01-11T08:08:35;101212.06;;;-4.27;87.23
47913;BME280;33676;51.006;17.180;2024-01-11T08:11:16;101209.47;;;-4.17;87.22
47913;BME280;33676;51.006;17.180;2024-01-11T08:13:44;101205.48;;;-4.04;87.10
47913;BME280;33676;51.006;17.180;2024-01-11T08:16:17;101211.08;;;-3.93;86.64
47913;BME280;33676;51.006;17.180;2024-01-11T08:18:46;101217.90;;;-3.86;85.91
47913;BME280;33676;51.006;17.180;2024-01-11T08:21:18;101222.86;;;-3.90;85.12
47913;BME280;33676;51.006;17.180;2024-01-11T08:23:47;101221.68;;;-3.94;84.88
47913;BME280;33676;51.006;17.180;2024-01-11T08:26:17;101216.89;;;-3.90;85.35
47913;BME280;33676;51.006;17.180;2024-01-11T08:28:50;101212.23;;;-3.78;85.78
47913;BME280;33676;51.006;17.180;2024-01-11T08:31:18;101213.35;;;-3.64;85.81
47913;BME280;33676;51.006;17.180;2024-01-11T08:33:47;101223.19;;;-3.51;85.93
47913;BME280;33676;51.006;17.180;2024-01-11T08:36:16;101222.78;;;-3.40;85.71
47913;BME280;33676;51.006;17.180;2024-01-11T08:38:44;101224.62;;;-3.31;85.59
47913;BME280;33676;51.006;17.180;2024-01-11T08:41:13;101227.14;;;-3.24;85.55
47913;BME280;33676;51.006;17.180;2024-01-11T08:43:42;101224.54;;;-3.17;85.33
47913;BME280;33676;51.006;17.180;2024-01-11T08:46:10;101219.16;;;-3.10;85.37
47913;BME280;33676;51.006;17.180;2024-01-11T08:48:39;101212.45;;;-3.04;85.29
47913;BME280;33676;51.006;17.180;2024-01-11T08:51:07;101219.24;;;-2.97;85.36
47913;BME280;33676;51.006;17.180;2024-01-11T08:53:37;101226.89;;;-2.89;85.15
47913;BME280;33676;51.006;17.180;2024-01-11T08:56:06;101218.98;;;-2.83;84.93
47913;BME280;33676;51.006;17.180;2024-01-11T08:58:35;101214.30;;;-2.77;84.84
47913;BME280;33676;51.006;17.180;2024-01-11T09:01:04;101221.08;;;-2.68;85.02
47913;BME280;33676;51.006;17.180;2024-01-11T09:03:32;101222.63;;;-2.53;85.83
47913;BME280;33676;51.006;17.180;2024-01-11T09:06:04;101219.92;;;-2.38;85.90
47913;BME280;33676;51.006;17.180;2024-01-11T09:08:33;101220.65;;;-2.25;85.88
47913;BME280;33676;51.006;17.180;2024-01-11T09:11:02;101230.98;;;-2.14;85.89
47913;BME280;33676;51.006;17.180;2024-01-11T09:13:31;101234.97;;;-2.05;85.80
47913;BME280;33676;51.006;17.180;2024-01-11T09:15:59;101243.96;;;-1.96;85.61
47913;BME280;33676;51.006;17.180;2024-01-11T09:18:28;101238.91;;;-1.89;85.24
47913;BME280;33676;51.006;17.180;2024-01-11T09:20:57;101237.13;;;-1.82;85.18
47913;BME280;33676;51.006;17.180;2024-01-11T09:23:26;101237.04;;;-1.76;84.54
47913;BME280;33676;51.006;17.180;2024-01-11T09:25:54;101233.63;;;-1.77;83.43
47913;BME280;33676;51.006;17.180;2024-01-11T09:28:23;101233.01;;;-1.82;82.95
47913;BME280;33676;51.006;17.180;2024-01-11T09:30:52;101233.02;;;-1.83;82.94
47913;BME280;33676;51.006;17.180;2024-01-11T09:33:23;101234.86;;;-1.80;82.78
47913;BME280;33676;51.006;17.180;2024-01-11T09:36:01;101231.27;;;-1.81;82.65
47913;BME280;33676;51.006;17.180;2024-01-11T09:38:31;101223.89;;;-1.79;82.79
47913;BME280;33676;51.006;17.180;2024-01-11T09:41:07;101217.24;;;-1.68;83.70
47913;BME280;33676;51.006;17.180;2024-01-11T09:43:42;101223.50;;;-1.49;84.35
47913;BME280;33676;51.006;17.180;2024-01-11T09:46:12;101224.80;;;-1.32;84.70
47913;BME280;33676;51.006;17.180;2024-01-11T09:48:43;101218.06;;;-1.16;84.54
47913;BME280;33676;51.006;17.180;2024-01-11T09:51:13;101211.88;;;-1.05;84.03
47913;BME280;33676;51.006;17.180;2024-01-11T09:53:44;101202.42;;;-0.94;84.06
47913;BME280;33676;51.006;17.180;2024-01-11T09:56:13;101206.36;;;-0.82;83.93
47913;BME280;33676;51.006;17.180;2024-01-11T09:58:47;101204.67;;;-0.73;83.81
47913;BME280;33676;51.006;17.180;2024-01-11T10:01:18;101210.30;;;-0.71;81.93
47913;BME280;33676;51.006;17.180;2024-01-11T10:03:47;101215.45;;;-0.82;80.80
47913;BME280;33676;51.006;17.180;2024-01-11T10:06:17;101218.23;;;-0.95;80.47
47913;BME280;33676;51.006;17.180;2024-01-11T10:08:46;101212.31;;;-1.01;80.48
47913;BME280;33676;51.006;17.180;2024-01-11T10:11:15;101203.07;;;-1.02;80.32
47913;BME280;33676;51.006;17.180;2024-01-11T10:13:44;101197.92;;;-1.02;80.26
47913;BME280;33676;51.006;17.180;2024-01-11T10:16:14;101203.92;;;-1.02;80.13
47913;BME280;33676;51.006;17.180;2024-01-11T10:18:43;101207.95;;;-0.96;80.92
47913;BME280;33676;51.006;17.180;2024-01-11T10:21:13;101190.88;;;-0.80;81.49
47913;BME280;33676;51.006;17.180;2024-01-11T10:23:43;101184.95;;;-0.65;81.46
47913;BME280;33676;51.006;17.180;2024-01-11T10:26:15;101184.35;;;-0.51;81.54
47913;BME280;33676;51.006;17.180;2024-01-11T10:28:46;101170.73;;;-0.40;81.41
47913;BME280;33676;51.006;17.180;2024-01-11T10:31:17;101168.02;;;-0.31;81.23
47913;BME280;33676;51.006;17.180;2024-01-11T10:33:46;101163.92;;;-0.24;81.23
47913;BME280;33676;51.006;17.180;2024-01-11T10:36:17;101145.45;;;-0.19;81.05
47913;BME280;33676;51.006;17.180;2024-01-11T10:38:48;101147.55;;;-0.21;79.70
47913;BME280;33676;51.006;17.180;2024-01-11T10:41:18;101138.15;;;-0.32;79.01
47913;BME280;33676;51.006;17.180;2024-01-11T10:43:48;101141.48;;;-0.45;78.67
47913;BME280;33676;51.006;17.180;2024-01-11T10:46:20;101147.25;;;-0.59;78.46
47913;BME280;33676;51.006;17.180;2024-01-11T10:48:55;101150.34;;;-0.68;78.19
47913;BME280;33676;51.006;17.180;2024-01-11T10:51:25;101150.77;;;-0.73;78.33
47913;BME280;33676;51.006;17.180;2024-01-11T10:53:56;101150.95;;;-0.74;78.51
47913;BME280;33676;51.006;17.180;2024-01-11T10:56:28;101151.98;;;-0.64;79.92
47913;BME280;33676;51.006;17.180;2024-01-11T10:58:57;101151.44;;;-0.53;80.22
47913;BME280;33676;51.006;17.180;2024-01-11T11:01:28;101145.56;;;-0.43;80.14
47913;BME280;33676;51.006;17.180;2024-01-11T11:03:57;101143.34;;;-0.34;80.15
47913;BME280;33676;51.006;17.180;2024-01-11T11:06:27;101133.41;;;-0.27;80.02
47913;BME280;33676;51.006;17.180;2024-01-11T11:08:57;101135.45;;;-0.17;80.47
47913;BME280;33676;51.006;17.180;2024-01-11T11:11:27;101142.67;;;-0.09;80.35
47913;BME280;33676;51.006;17.180;2024-01-11T11:14:00;101137.16;;;-0.01;80.44
47913;BME280;33676;51.006;17.180;2024-01-11T11:16:29;101142.05;;;0.03;79.29
47913;BME280;33676;51.006;17.180;2024-01-11T11:18:58;101141.29;;;-0.09;77.85
47913;BME280;33676;51.006;17.180;2024-01-11T11:21:27;101149.18;;;-0.26;76.96
47913;BME280;33676;51.006;17.180;2024-01-11T11:23:56;101149.11;;;-0.41;76.56
47913;BME280;33676;51.006;17.180;2024-01-11T11:26:26;101149.15;;;-0.51;76.88
47913;BME280;33676;51.006;17.180;2024-01-11T11:28:55;101145.65;;;-0.55;77.10
47913;BME280;33676;51.006;17.180;2024-01-11T11:31:58;101149.15;;;-0.51;77.61
47913;BME280;33676;51.006;17.180;2024-01-11T11:34:41;101150.92;;;-0.27;78.70
47913;BME280;33676;51.006;17.180;2024-01-11T11:37:11;101142.23;;;-0.04;78.24
47913;BME280;33676;51.006;17.180;2024-01-11T11:39:41;101132.60;;;0.11;77.40
47913;BME280;33676;51.006;17.180;2024-01-11T11:42:11;101132.41;;;0.20;77.35
47913;BME280;33676;51.006;17.180;2024-01-11T11:44:49;101131.38;;;0.28;77.22
47913;BME280;33676;51.006;17.180;2024-01-11T11:47:23;101129.84;;;0.36;77.33
47913;BME280;33676;51.006;17.180;2024-01-11T11:50:07;101139.81;;;0.44;77.38
47913;BME280;33676;51.006;17.180;2024-01-11T11:52:39;101133.17;;;0.40;76.06
47913;BME280;33676;51.006;17.180;2024-01-11T11:55:09;101129.34;;;0.27;75.48
47913;BME280;33676;51.006;17.180;2024-01-11T11:57:38;101131.13;;;0.16;74.79
47913;BME280;33676;51.006;17.180;2024-01-11T12:00:07;101126.71;;;0.05;74.43
47913;BME280;33676;51.006;17.180;2024-01-11T12:02:37;101115.59;;;-0.04;74.51
47913;BME280;33676;51.006;17.180;2024-01-11T12:05:06;101119.30;;;-0.09;74.46
47913;BME280;33676;51.006;17.180;2024-01-11T12:07:34;101121.80;;;-0.13;74.57
47913;BME280;33676;51.006;17.180;2024-01-11T12:10:05;101114.49;;;-0.18;74.72
47913;BME280;33676;51.006;17.180;2024-01-11T12:12:36;101114.42;;;-0.23;74.59
47913;BME280;33676;51.006;17.180;2024-01-11T12:15:05;101112.88;;;-0.32;74.26
47913;BME280;33676;51.006;17.180;2024-01-11T12:17:34;101108.70;;;-0.37;74.33
47913;BME280;33676;51.006;17.180;2024-01-11T12:20:03;101108.26;;;-0.41;74.67
47913;BME280;33676;51.006;17.180;2024-01-11T12:22:32;101105.90;;;-0.44;74.38
47913;BME280;33676;51.006;17.180;2024-01-11T12:25:01;101099.09;;;-0.46;74.50
47913;BME280;33676;51.006;17.180;2024-01-11T12:27:31;101105.65;;;-0.49;74.41
47913;BME280;33676;51.006;17.180;2024-01-11T12:30:01;101108.55;;;-0.47;74.68
47913;BME280;33676;51.006;17.180;2024-01-11T12:32:30;101098.55;;;-0.45;74.62
47913;BME280;33676;51.006;17.180;2024-01-11T12:34:59;101095.77;;;-0.44;74.74
47913;BME280;33676;51.006;17.180;2024-01-11T12:37:30;101096.61;;;-0.43;74.58
47913;BME280;33676;51.006;17.180;2024-01-11T12:39:59;101099.16;;;-0.42;74.43
47913;BME280;33676;51.006;17.180;2024-01-11T12:42:29;101105.77;;;-0.29;75.82
47913;BME280;33676;51.006;17.180;2024-01-11T12:44:59;101101.46;;;-0.11;76.27
47913;BME280;33676;51.006;17.180;2024-01-11T12:47:27;101095.66;;;0.03;76.52
47913;BME280;33676;51.006;17.180;2024-01-11T12:49:56;101095.55;;;0.15;76.59
47913;BME280;33676;51.006;17.180;2024-01-11T12:52:25;101102.01;;;0.27;76.50
47913;BME280;33676;51.006;17.180;2024-01-11T12:54:56;101106.21;;;0.39;76.77
47913;BME280;33676;51.006;17.180;2024-01-11T12:57:28;101111.23;;;0.52;76.55
47913;BME280;33676;51.006;17.180;2024-01-11T13:00:15;101111.71;;;0.60;76.49
47913;BME280;33676;51.006;17.180;2024-01-11T13:02:44;101112.52;;;0.69;76.86
47913;BME280;33676;51.006;17.180;2024-01-11T13:05:15;101108.66;;;0.73;76.47
47913;BME280;33676;51.006;17.180;2024-01-11T13:07:44;101115.03;;;0.73;76.60
47913;BME280;33676;51.006;17.180;2024-01-11T13:10:12;101108.39;;;0.70;76.18
47913;BME280;33676;51.006;17.180;2024-01-11T13:12:43;101104.06;;;0.63;75.87
47913;BME280;33676;51.006;17.180;2024-01-11T13:15:21;101107.20;;;0.54;75.73